Time;durP1;ratioP1;P1;durP2;ratioP2;P2;SDS_P1;SDS_P2;PMS_P1;PMS_P2;Temp;Humidity;BMP_temperature;BMP_pressure;BME280_temperature;BME280_humidity;BME280_pressure;Samples;Min_cycle;Max_cycle;Signal;HPM_P1;HPM_P2
2023/08/04 00:00:24;;;;;;;6.18;1.40;;;16.70;99.90;;;;;;5104333;28;20763;-72
2023/08/04 00:02:50;;;;;;;5.97;1.53;;;16.70;99.90;;;;;;5107921;28;20412;-71
2023/08/04 00:05:16;;;;;;;4.85;1.20;;;16.70;99.90;;;;;;5103670;28;21087;-71
2023/08/04 00:07:43;;;;;;;4.40;1.05;;;16.70;99.90;;;;;;5105903;28;20400;-71
2023/08/04 00:10:09;;;;;;;7.10;1.17;;;16.70;99.90;;;;;;5104315;28;20399;-71
2023/08/04 00:12:34;;;;;;;6.18;1.13;;;16.70;99.90;;;;;;5107443;28;20400;-71
2023/08/04 00:15:00;;;;;;;4.23;1.20;;;16.70;99.90;;;;;;5103391;28;20398;-71
2023/08/04 00:17:26;;;;;;;4.78;1.10;;;16.70;99.90;;;;;;5098565;28;20509;-72
2023/08/04 00:19:52;;;;;;;4.82;1.00;;;16.70;99.90;;;;;;5105596;28;20965;-71
2023/08/04 00:22:18;;;;;;;5.00;1.17;;;16.70;99.90;;;;;;5108071;28;20412;-72
2023/08/04 00:24:44;;;;;;;6.25;1.40;;;16.70;99.90;;;;;;5107550;28;20529;-72
2023/08/04 00:27:10;;;;;;;5.90;1.33;;;16.70;99.90;;;;;;5098758;28;20399;-71
2023/08/04 00:29:35;;;;;;;8.93;1.63;;;16.60;99.90;;;;;;5104156;28;20422;-71
2023/08/04 00:32:01;;;;;;;5.20;1.25;;;16.60;99.90;;;;;;5108424;28;20479;-71
2023/08/04 00:34:27;;;;;;;6.90;1.00;;;16.60;99.90;;;;;;5105722;28;20395;-71
2023/08/04 00:36:52;;;;;;;5.72;1.27;;;16.50;99.90;;;;;;5108191;28;20404;-71
2023/08/04 00:39:18;;;;;;;7.67;1.20;;;16.60;99.90;;;;;;5104174;28;20414;-72
2023/08/04 00:41:43;;;;;;;4.53;1.02;;;16.60;99.90;;;;;;5107324;28;20428;-72
2023/08/04 00:44:09;;;;;;;7.50;1.40;;;16.60;99.90;;;;;;5103914;28;20497;-72
2023/08/04 00:46:36;;;;;;;7.13;1.10;;;16.50;99.90;;;;;;5098567;28;20389;-71
2023/08/04 00:49:03;;;;;;;5.57;1.20;;;16.50;99.90;;;;;;5104877;28;20401;-71
2023/08/04 00:51:31;;;;;;;4.05;1.10;;;16.50;99.90;;;;;;5106845;28;21092;-71
2023/08/04 00:53:57;;;;;;;6.15;1.30;;;16.60;99.90;;;;;;5103324;28;20940;-71
2023/08/04 00:56:22;;;;;;;5.73;1.43;;;16.50;99.90;;;;;;5106489;28;20400;-72
2023/08/04 00:58:48;;;;;;;7.00;1.70;;;16.60;99.90;;;;;;5103182;28;20479;-71
2023/08/04 01:01:14;;;;;;;5.83;1.40;;;16.60;99.90;;;;;;5107314;28;20457;-71
2023/08/04 01:03:41;;;;;;;4.45;1.27;;;16.50;99.90;;;;;;5104493;28;20406;-72
2023/08/04 01:06:19;;;;;;;4.07;1.20;;;16.50;99.90;;;;;;5105722;28;20396;-72
2023/08/04 01:08:57;;;;;;;6.17;1.40;;;16.50;99.90;;;;;;5101526;28;20408;-71
2023/08/04 01:11:30;;;;;;;5.70;1.20;;;16.50;99.90;;;;;;5092900;28;20413;-71
2023/08/04 01:13:56;;;;;;;5.00;1.15;;;16.50;99.90;;;;;;5098422;28;20406;-71
2023/08/04 01:16:22;;;;;;;7.45;1.23;;;16.50;99.90;;;;;;5096089;28;20422;-71
2023/08/04 01:18:47;;;;;;;5.03;1.17;;;16.60;99.90;;;;;;5084397;28;21226;-71
2023/08/04 01:21:13;;;;;;;8.30;1.30;;;16.50;99.90;;;;;;5105497;28;20400;-71
2023/08/04 01:23:39;;;;;;;5.03;1.40;;;16.60;99.90;;;;;;5107128;28;20399;-72
2023/08/04 01:26:06;;;;;;;5.32;1.40;;;16.60;99.90;;;;;;5104772;28;20408;-71
2023/08/04 01:28:33;;;;;;;11.80;1.77;;;16.50;99.90;;;;;;5107160;28;20396;-71
2023/08/04 01:31:00;;;;;;;6.17;2.10;;;16.50;99.90;;;;;;5092040;28;20405;-71
2023/08/04 01:33:27;;;;;;;7.73;1.80;;;16.50;99.90;;;;;;5095064;28;20397;-71
2023/08/04 01:35:52;;;;;;;8.07;2.08;;;16.50;99.90;;;;;;5085321;28;20521;-71
2023/08/04 01:38:18;;;;;;;8.63;1.90;;;16.50;99.90;;;;;;5105959;28;20546;-71
2023/08/04 01:40:44;;;;;;;7.57;2.17;;;16.50;99.90;;;;;;5090567;28;20430;-71
2023/08/04 01:43:09;;;;;;;7.53;1.90;;;16.50;99.90;;;;;;5106208;28;20472;-71
2023/08/04 01:45:35;;;;;;;7.82;2.00;;;16.50;99.90;;;;;;5091919;28;20394;-71
2023/08/04 01:48:00;;;;;;;9.33;1.73;;;16.50;99.90;;;;;;5099501;28;20405;-71
2023/08/04 01:50:26;;;;;;;6.60;1.67;;;16.50;99.90;;;;;;5099141;28;20465;-72
2023/08/04 01:52:53;;;;;;;6.20;1.40;;;16.50;99.90;;;;;;5093497;28;20404;-71
2023/08/04 01:55:18;;;;;;;5.60;1.07;;;16.50;99.90;;;;;;5083879;28;20415;-71
2023/08/04 01:57:44;;;;;;;3.55;1.00;;;16.50;99.90;;;;;;5086522;28;20426;-71
2023/08/04 02:00:11;;;;;;;5.63;1.10;;;16.50;99.90;;;;;;5089653;28;20467;-71
2023/08/04 02:02:36;;;;;;;5.45;0.80;;;16.50;99.90;;;;;;5099965;28;20751;-71
2023/08/04 02:05:02;;;;;;;7.17;1.30;;;16.50;99.90;;;;;;5095205;28;20402;-71
2023/08/04 02:07:27;;;;;;;3.95;0.95;;;16.50;99.90;;;;;;5103506;28;20404;-71
2023/08/04 02:09:53;;;;;;;3.67;0.63;;;16.40;99.90;;;;;;5106421;28;20411;-71
2023/08/04 02:12:18;;;;;;;3.43;0.70;;;16.40;99.90;;;;;;5103558;28;20410;-71
2023/08/04 02:14:44;;;;;;;4.80;0.60;;;16.40;99.90;;;;;;5095266;28;20848;-71
2023/08/04 02:17:12;;;;;;;2.60;0.70;;;16.40;99.90;;;;;;5105445;28;20483;-71
2023/08/04 02:19:37;;;;;;;2.85;0.77;;;16.40;99.90;;;;;;5104945;28;21104;-71
2023/08/04 02:22:03;;;;;;;5.17;0.80;;;16.40;99.90;;;;;;5091981;28;20508;-71
2023/08/04 02:24:29;;;;;;;3.95;0.80;;;16.40;99.90;;;;;;5106297;28;20399;-71
2023/08/04 02:26:54;;;;;;;4.10;0.90;;;16.40;99.90;;;;;;5105107;28;20396;-71
2023/08/04 02:29:20;;;;;;;5.43;1.25;;;16.40;99.90;;;;;;5104206;28;20901;-71
2023/08/04 02:31:45;;;;;;;8.17;1.83;;;16.30;99.90;;;;;;5092993;28;20408;-71
2023/08/04 02:34:11;;;;;;;6.13;1.67;;;16.30;99.90;;;;;;5091384;28;20390;-71
2023/08/04 02:36:37;;;;;;;5.88;1.50;;;16.30;99.90;;;;;;5105256;28;20966;-71
2023/08/04 02:39:03;;;;;;;6.60;1.42;;;16.20;99.90;;;;;;5104430;28;20481;-71
2023/08/04 02:41:29;;;;;;;5.17;1.33;;;16.30;99.90;;;;;;5094740;28;20445;-71
2023/08/04 02:43:54;;;;;;;6.50;1.75;;;16.20;99.90;;;;;;5104933;28;20396;-71
2023/08/04 02:46:22;;;;;;;6.10;1.57;;;16.10;99.90;;;;;;5106395;28;20454;-71
2023/08/04 02:48:48;;;;;;;6.07;1.70;;;16.10;99.90;;;;;;5105325;28;20400;-71
2023/08/04 02:51:14;;;;;;;6.63;1.85;;;16.00;99.90;;;;;;5105340;28;20396;-71
2023/08/04 02:53:43;;;;;;;5.53;1.60;;;16.00;99.90;;;;;;5103197;28;20402;-71
2023/08/04 02:56:13;;;;;;;7.90;1.70;;;16.00;99.90;;;;;;5093936;28;20453;-71
2023/08/04 02:58:41;;;;;;;6.70;1.90;;;16.00;99.90;;;;;;5101836;28;20422;-71
2023/08/04 03:01:07;;;;;;;6.75;2.00;;;15.90;99.90;;;;;;5105180;28;20397;-71
2023/08/04 03:03:32;;;;;;;5.07;1.73;;;15.90;99.90;;;;;;5100337;28;20398;-71
2023/08/04 03:05:59;;;;;;;7.87;2.10;;;15.90;99.90;;;;;;5095251;28;20406;-71
2023/08/04 03:08:25;;;;;;;5.78;1.52;;;15.90;99.90;;;;;;5103606;28;20968;-71
2023/08/04 03:10:51;;;;;;;6.63;1.30;;;15.90;99.90;;;;;;5077640;28;20483;-71
2023/08/04 03:13:16;;;;;;;4.97;1.45;;;15.90;99.90;;;;;;5105749;28;20402;-71
2023/08/04 03:15:42;;;;;;;5.93;1.70;;;15.90;99.90;;;;;;5101961;28;20883;-70
2023/08/04 03:18:08;;;;;;;4.97;1.33;;;15.90;99.90;;;;;;5104331;28;20424;-71
2023/08/04 03:20:40;;;;;;;6.33;2.00;;;15.90;99.90;;;;;;5110073;28;20393;-71
2023/08/04 03:23:06;;;;;;;7.53;1.85;;;15.90;99.90;;;;;;5107030;28;21020;-71
2023/08/04 03:25:33;;;;;;;7.43;2.13;;;15.90;99.90;;;;;;5108506;28;20403;-71
2023/08/04 03:27:59;;;;;;;5.18;1.80;;;15.90;99.90;;;;;;5106020;28;20394;-71
2023/08/04 03:30:25;;;;;;;6.63;2.00;;;15.90;99.90;;;;;;5101014;28;20390;-71
2023/08/04 03:32:50;;;;;;;7.10;2.10;;;15.80;99.90;;;;;;5102609;28;20447;-71
2023/08/04 03:35:16;;;;;;;4.75;1.80;;;15.90;99.90;;;;;;5108822;28;20396;-71
2023/08/04 03:37:41;;;;;;;8.27;1.90;;;15.90;99.90;;;;;;5105619;28;20783;-71
2023/08/04 03:40:08;;;;;;;7.73;2.07;;;15.90;99.90;;;;;;5101451;28;20428;-71
2023/08/04 03:42:38;;;;;;;5.97;1.90;;;15.80;99.90;;;;;;5101579;28;20433;-71
2023/08/04 03:45:07;;;;;;;5.03;1.80;;;15.80;99.90;;;;;;5107906;28;20396;-71
2023/08/04 03:47:34;;;;;;;6.18;1.90;;;15.80;99.90;;;;;;5103147;28;20917;-71
2023/08/04 03:50:01;;;;;;;5.57;2.05;;;15.70;99.90;;;;;;5099139;28;20397;-71
2023/08/04 03:52:26;;;;;;;5.75;1.95;;;15.70;99.90;;;;;;5104558;27;20405;-71
2023/08/04 03:54:52;;;;;;;7.90;2.00;;;15.70;99.90;;;;;;5107927;28;20397;-71
2023/08/04 03:57:17;;;;;;;6.03;1.70;;;15.70;99.90;;;;;;5103916;28;20422;-71
2023/08/04 03:59:43;;;;;;;5.63;1.50;;;15.70;99.90;;;;;;5106428;28;20400;-72
2023/08/04 04:02:09;;;;;;;4.50;1.43;;;15.80;99.90;;;;;;5103027;28;20939;-72
2023/08/04 04:04:34;;;;;;;6.07;1.33;;;15.80;99.90;;;;;;5080967;28;20402;-72
2023/08/04 04:07:00;;;;;;;4.67;1.10;;;15.70;99.90;;;;;;5104350;28;20446;-72
2023/08/04 04:09:25;;;;;;;3.92;0.90;;;15.70;99.90;;;;;;5109168;28;20429;-72
2023/08/04 04:11:51;;;;;;;3.07;0.90;;;15.80;99.90;;;;;;5107532;28;20921;-72
2023/08/04 04:14:16;;;;;;;3.80;1.00;;;15.80;99.90;;;;;;5109062;28;20396;-70
2023/08/04 04:16:42;;;;;;;3.05;0.80;;;15.70;99.90;;;;;;5107583;28;20400;-70
2023/08/04 04:19:08;;;;;;;2.87;1.00;;;15.80;99.90;;;;;;5109166;28;20914;-70
2023/08/04 04:21:34;;;;;;;3.30;0.85;;;15.80;99.90;;;;;;5106478;28;20496;-70
2023/08/04 04:23:59;;;;;;;3.50;0.90;;;15.80;99.90;;;;;;5107834;28;20407;-70
2023/08/04 04:26:25;;;;;;;2.03;0.63;;;15.80;99.90;;;;;;5104016;28;20406;-70
2023/08/04 04:28:50;;;;;;;1.77;0.90;;;15.80;99.90;;;;;;5107629;28;20400;-70
2023/08/04 04:31:16;;;;;;;2.60;1.00;;;15.70;99.90;;;;;;5105747;28;20685;-70
2023/08/04 04:33:41;;;;;;;3.20;1.13;;;15.70;99.90;;;;;;5106638;28;20400;-71
2023/08/04 04:36:07;;;;;;;3.47;1.30;;;15.70;99.90;;;;;;5094378;28;20390;-71
2023/08/04 04:38:33;;;;;;;2.97;1.05;;;15.60;99.90;;;;;;5107756;28;20423;-71
2023/08/04 04:41:02;;;;;;;2.03;0.90;;;15.60;99.90;;;;;;5104763;28;20398;-71
2023/08/04 04:43:29;;;;;;;3.17;1.15;;;15.50;99.90;;;;;;5107351;28;20868;-70
2023/08/04 04:45:55;;;;;;;2.83;1.08;;;15.50;99.90;;;;;;5092853;28;20485;-71
2023/08/04 04:48:23;;;;;;;2.30;0.95;;;15.50;99.90;;;;;;5107162;28;20396;-71
2023/08/04 04:50:50;;;;;;;2.45;1.05;;;15.50;99.90;;;;;;5104203;28;20757;-71
2023/08/04 04:53:16;;;;;;;2.22;1.15;;;15.40;99.90;;;;;;5106963;28;20400;-71
2023/08/04 04:55:42;;;;;;;3.13;1.10;;;15.40;99.90;;;;;;5103695;28;20737;-71
2023/08/04 04:58:07;;;;;;;3.80;1.40;;;15.40;99.90;;;;;;5105807;28;20477;-71
2023/08/04 05:00:34;;;;;;;3.03;0.95;;;15.40;99.90;;;;;;5103279;28;21131;-71
2023/08/04 05:03:01;;;;;;;3.17;1.03;;;15.40;99.90;;;;;;5098256;28;20398;-71
2023/08/04 05:05:28;;;;;;;3.88;1.10;;;15.40;99.90;;;;;;5090916;28;20496;-71
2023/08/04 05:07:54;;;;;;;4.03;1.30;;;15.40;99.90;;;;;;5106240;28;20405;-71
2023/08/04 05:10:19;;;;;;;6.05;1.40;;;15.50;99.90;;;;;;5105349;28;20396;-72
2023/08/04 05:12:45;;;;;;;2.42;1.00;;;15.50;99.90;;;;;;5107418;28;20474;-71
2023/08/04 05:15:10;;;;;;;2.93;1.23;;;15.50;99.90;;;;;;5105864;28;20882;-72
2023/08/04 05:17:36;;;;;;;3.00;1.08;;;15.50;99.90;;;;;;5106250;28;20420;-71
2023/08/04 05:20:03;;;;;;;2.57;0.93;;;15.60;99.90;;;;;;5093392;28;20409;-70
2023/08/04 05:22:28;;;;;;;3.13;1.00;;;15.60;99.90;;;;;;5106959;28;20396;-70
2023/08/04 05:24:54;;;;;;;1.90;0.90;;;15.70;99.90;;;;;;5090109;28;20846;-71
2023/08/04 05:27:20;;;;;;;1.90;0.88;;;15.70;99.90;;;;;;5097888;28;20404;-72
2023/08/04 05:29:45;;;;;;;2.40;1.00;;;15.70;99.90;;;;;;5091933;28;20419;-72
2023/08/04 05:32:11;;;;;;;2.00;0.93;;;15.80;99.90;;;;;;5106167;28;20487;-72
2023/08/04 05:34:36;;;;;;;1.70;0.82;;;15.80;99.90;;;;;;5103305;28;20969;-72
2023/08/04 05:37:02;;;;;;;2.27;1.00;;;15.80;99.90;;;;;;5106995;28;20476;-72
2023/08/04 05:39:27;;;;;;;3.15;0.82;;;15.90;99.90;;;;;;5104132;28;20390;-72
2023/08/04 05:41:53;;;;;;;3.67;1.00;;;15.90;99.90;;;;;;5107309;28;20450;-72
2023/08/04 05:44:22;;;;;;;2.77;0.90;;;16.00;99.90;;;;;;5103601;28;20409;-72
2023/08/04 05:46:47;;;;;;;2.70;1.10;;;16.00;99.90;;;;;;5095608;28;20926;-72
2023/08/04 05:49:13;;;;;;;2.00;0.87;;;16.10;99.90;;;;;;5101780;28;20406;-72
2023/08/04 05:51:38;;;;;;;3.10;1.15;;;16.10;99.90;;;;;;5096503;28;20480;-72
2023/08/04 05:54:04;;;;;;;2.50;1.20;;;16.20;99.90;;;;;;5100752;28;20402;-72
2023/08/04 05:56:30;;;;;;;2.88;0.90;;;16.20;99.90;;;;;;5104731;28;20399;-71
2023/08/04 05:58:55;;;;;;;3.57;1.07;;;16.30;99.90;;;;;;5099556;28;20462;-71
2023/08/04 06:01:21;;;;;;;2.07;1.00;;;16.30;99.90;;;;;;5104808;28;20412;-71
2023/08/04 06:03:46;;;;;;;3.45;1.23;;;16.30;99.90;;;;;;5100007;28;20413;-71
2023/08/04 06:06:12;;;;;;;3.03;1.10;;;16.40;99.90;;;;;;5087139;28;20406;-71
2023/08/04 06:08:37;;;;;;;7.50;1.63;;;16.50;99.90;;;;;;5103751;28;20393;-71
2023/08/04 06:11:03;;;;;;;4.23;1.40;;;16.40;99.90;;;;;;5107283;28;20763;-71
2023/08/04 06:13:29;;;;;;;3.60;1.40;;;16.50;99.90;;;;;;5103336;28;20510;-71
2023/08/04 06:15:54;;;;;;;5.30;2.00;;;16.50;99.90;;;;;;5104849;28;20396;-71
2023/08/04 06:18:20;;;;;;;3.42;1.73;;;16.50;99.90;;;;;;5101447;28;20525;-71
2023/08/04 06:20:50;;;;;;;4.53;1.70;;;16.60;99.90;;;;;;5104701;28;20404;-71
2023/08/04 06:23:16;;;;;;;3.58;1.88;;;16.60;99.90;;;;;;5100776;28;20911;-71
2023/08/04 06:25:41;;;;;;;3.67;1.53;;;16.60;99.90;;;;;;5105021;28;20401;-71
2023/08/04 06:28:07;;;;;;;4.40;1.75;;;16.60;99.90;;;;;;5101106;28;20408;-71
2023/08/04 06:30:32;;;;;;;5.80;1.97;;;16.60;99.90;;;;;;5104969;28;20400;-71
2023/08/04 06:32:58;;;;;;;3.60;1.90;;;16.60;99.90;;;;;;5100077;28;20398;-71
2023/08/04 06:35:24;;;;;;;6.00;2.13;;;16.70;99.90;;;;;;5104144;28;20404;-73
2023/08/04 06:37:49;;;;;;;3.53;1.77;;;16.70;99.90;;;;;;5089625;28;20604;-71
2023/08/04 06:40:15;;;;;;;5.10;2.00;;;16.70;99.90;;;;;;5103409;28;20392;-71
2023/08/04 06:42:40;;;;;;;4.20;2.03;;;16.70;99.90;;;;;;5099025;28;20402;-71
2023/08/04 06:45:10;;;;;;;5.80;2.10;;;16.70;99.90;;;;;;5101785;28;20393;-71
2023/08/04 06:47:35;;;;;;;5.32;2.13;;;16.80;99.90;;;;;;5100561;28;20405;-71
2023/08/04 06:50:03;;;;;;;7.47;2.33;;;16.90;99.90;;;;;;5105243;28;20404;-70
2023/08/04 06:52:30;;;;;;;5.75;1.90;;;16.80;99.90;;;;;;5100578;28;20402;-71
2023/08/04 06:54:56;;;;;;;6.47;2.30;;;16.90;99.90;;;;;;5097780;28;20415;-70
2023/08/04 06:57:21;;;;;;;6.55;1.92;;;16.90;99.90;;;;;;5100470;28;20394;-71
2023/08/04 06:59:47;;;;;;;5.73;1.93;;;17.00;99.90;;;;;;5099091;28;20667;-71
2023/08/04 07:02:13;;;;;;;5.28;2.00;;;17.00;99.90;;;;;;5098073;28;20409;-71
2023/08/04 07:04:38;;;;;;;7.47;2.95;;;17.10;99.90;;;;;;5097429;28;20398;-71
2023/08/04 07:07:04;;;;;;;5.72;2.00;;;17.10;99.90;;;;;;5105112;28;20517;-71
2023/08/04 07:09:30;;;;;;;5.00;1.63;;;17.10;99.90;;;;;;5109620;28;21213;-71
2023/08/04 07:11:56;;;;;;;4.20;1.70;;;17.10;99.90;;;;;;5107320;28;20388;-71
2023/08/04 07:14:21;;;;;;;5.47;1.90;;;17.20;99.90;;;;;;5109699;28;20409;-70
2023/08/04 07:16:47;;;;;;;3.93;1.73;;;17.30;99.90;;;;;;5108282;28;20396;-71
2023/08/04 07:19:13;;;;;;;6.10;2.17;;;17.40;99.90;;;;;;5108720;28;20431;-71
2023/08/04 07:21:39;;;;;;;7.13;2.08;;;17.50;99.90;;;;;;5103408;28;20413;-71
2023/08/04 07:24:05;;;;;;;5.45;1.63;;;17.60;99.90;;;;;;5101126;28;20412;-71
2023/08/04 07:26:32;;;;;;;6.10;1.80;;;17.80;99.90;;;;;;5107135;28;20447;-71
2023/08/04 07:28:58;;;;;;;5.47;1.60;;;17.90;99.90;;;;;;5109313;28;20419;-71
2023/08/04 07:31:24;;;;;;;5.13;1.42;;;18.00;99.90;;;;;;5105844;28;20453;-71
2023/08/04 07:33:49;;;;;;;4.00;1.60;;;18.00;99.90;;;;;;5099747;28;20900;-71
2023/08/04 07:36:15;;;;;;;6.10;1.40;;;18.00;99.90;;;;;;5103554;28;20941;-71
2023/08/04 07:38:41;;;;;;;4.27;1.40;;;18.00;99.90;;;;;;5108917;28;20416;-71
2023/08/04 07:41:06;;;;;;;5.43;1.42;;;18.10;99.90;;;;;;5104218;28;20485;-71
2023/08/04 07:43:32;;;;;;;5.00;1.20;;;18.10;99.90;;;;;;5099580;28;20399;-71
2023/08/04 07:45:58;;;;;;;4.88;1.13;;;18.20;99.90;;;;;;5105848;28;20406;-71
2023/08/04 07:48:24;;;;;;;4.65;1.40;;;18.20;99.90;;;;;;5108700;28;20392;-71
2023/08/04 07:50:51;;;;;;;6.35;1.50;;;18.30;99.90;;;;;;5103930;27;20475;-71
2023/08/04 07:53:17;;;;;;;5.72;1.80;;;18.30;99.90;;;;;;5106752;28;20455;-71
2023/08/04 07:55:56;;;;;;;5.68;1.65;;;18.40;99.90;;;;;;5092238;28;20807;-71
2023/08/04 07:58:22;;;;;;;6.22;1.70;;;18.40;99.90;;;;;;5089448;28;20476;-71
2023/08/04 08:00:48;;;;;;;5.88;1.73;;;18.40;99.90;;;;;;5099175;28;20477;-71
2023/08/04 08:03:13;;;;;;;6.63;1.73;;;18.30;99.90;;;;;;5099845;28;21356;-71
2023/08/04 08:05:39;;;;;;;4.73;1.70;;;18.30;99.90;;;;;;5089408;28;20406;-71
2023/08/04 08:08:04;;;;;;;7.35;2.00;;;18.30;99.90;;;;;;5088368;28;20409;-71
2023/08/04 08:10:30;;;;;;;7.13;2.63;;;18.30;99.90;;;;;;5107245;28;20477;-71
2023/08/04 08:12:56;;;;;;;7.93;2.10;;;18.20;99.90;;;;;;5108924;28;20404;-71
2023/08/04 08:15:21;;;;;;;6.17;1.97;;;18.10;99.90;;;;;;5105232;28;20403;-71
2023/08/04 08:17:47;;;;;;;5.80;2.05;;;18.00;99.90;;;;;;5108152;28;20438;-71
2023/08/04 08:20:12;;;;;;;8.93;3.00;;;17.80;99.90;;;;;;5101472;28;20483;-71
2023/08/04 08:22:38;;;;;;;5.37;1.80;;;17.80;99.90;;;;;;5099780;28;20440;-71
2023/08/04 08:25:04;;;;;;;6.93;2.42;;;17.80;99.90;;;;;;5101233;28;20510;-71
2023/08/04 08:27:30;;;;;;;6.10;2.17;;;17.70;99.90;;;;;;5100842;28;20403;-71
2023/08/04 08:29:55;;;;;;;6.18;2.35;;;17.70;99.90;;;;;;5103137;28;20397;-71
2023/08/04 08:32:21;;;;;;;8.77;2.27;;;17.70;99.90;;;;;;5096448;28;20469;-71
2023/08/04 08:34:47;;;;;;;6.80;2.28;;;17.70;99.90;;;;;;5104381;28;20397;-71
2023/08/04 08:37:13;;;;;;;10.10;2.20;;;17.70;99.90;;;;;;5107177;28;20518;-71
2023/08/04 08:39:38;;;;;;;5.37;2.00;;;17.70;99.90;;;;;;5092866;28;20904;-71
2023/08/04 08:42:04;;;;;;;7.55;1.95;;;17.70;99.90;;;;;;5096341;28;20402;-71
2023/08/04 08:44:30;;;;;;;4.90;1.47;;;17.80;99.90;;;;;;5099489;28;20400;-71
2023/08/04 08:46:56;;;;;;;8.07;1.48;;;18.00;99.90;;;;;;5098422;28;20412;-72
2023/08/04 08:49:27;;;;;;;5.77;1.50;;;18.20;99.90;;;;;;5103516;28;20476;-71
2023/08/04 08:51:56;;;;;;;6.32;1.48;;;18.30;99.90;;;;;;5105432;28;20812;-71
2023/08/04 08:54:22;;;;;;;9.00;1.40;;;18.50;99.90;;;;;;5104220;28;20407;-71
2023/08/04 08:56:49;;;;;;;7.45;1.20;;;18.60;99.90;;;;;;5093337;28;20814;-71
2023/08/04 08:59:15;;;;;;;6.07;1.63;;;18.70;99.90;;;;;;5103404;28;20431;-71
2023/08/04 09:01:41;;;;;;;4.13;0.85;;;18.70;99.90;;;;;;5104550;28;20401;-71
2023/08/04 09:04:07;;;;;;;5.75;1.20;;;18.60;99.90;;;;;;5098322;28;20945;-71
2023/08/04 09:06:32;;;;;;;4.53;0.90;;;18.60;99.90;;;;;;5100008;28;20404;-71
2023/08/04 09:09:02;;;;;;;5.27;1.10;;;18.60;99.90;;;;;;5100499;28;20930;-71
2023/08/04 09:11:31;;;;;;;6.45;1.23;;;18.70;99.90;;;;;;5098827;28;20488;-71
2023/08/04 09:14:00;;;;;;;5.55;1.10;;;18.80;99.90;;;;;;5099152;28;20755;-71
2023/08/04 09:16:36;;;;;;;5.70;1.38;;;18.90;99.90;;;;;;5099220;28;20566;-72
2023/08/04 09:19:09;;;;;;;4.18;0.93;;;18.90;99.90;;;;;;5085707;28;20424;-71
2023/08/04 09:21:35;;;;;;;2.75;0.80;;;19.00;99.90;;;;;;5088979;28;20401;-71
2023/08/04 09:24:02;;;;;;;3.30;0.70;;;19.10;99.90;;;;;;5097595;28;20425;-71
2023/08/04 09:26:42;;;;;;;3.58;0.63;;;19.30;99.90;;;;;;5100467;28;20764;-71
2023/08/04 09:29:08;;;;;;;6.75;0.90;;;19.50;99.90;;;;;;5106464;28;20445;-71
2023/08/04 09:31:36;;;;;;;2.97;0.70;;;19.60;99.90;;;;;;5092295;28;20401;-71
2023/08/04 09:34:06;;;;;;;6.13;0.80;;;19.60;99.90;;;;;;5106603;28;20392;-71
2023/08/04 09:36:44;;;;;;;4.47;0.95;;;19.60;99.90;;;;;;5102653;28;20406;-71
2023/08/04 09:39:10;;;;;;;3.70;0.77;;;19.70;99.90;;;;;;5104484;28;20499;-71
2023/08/04 09:41:47;;;;;;;5.85;1.02;;;20.10;99.90;;;;;;5105386;28;20561;-71
2023/08/04 09:44:14;;;;;;;5.32;1.10;;;20.40;99.90;;;;;;5101835;28;20406;-71
2023/08/04 09:46:47;;;;;;;5.50;0.88;;;20.80;99.90;;;;;;5105604;28;20918;-71
2023/08/04 09:49:13;;;;;;;7.53;1.30;;;20.90;99.90;;;;;;5101741;28;20398;-72
2023/08/04 09:51:41;;;;;;;3.95;0.75;;;20.90;99.90;;;;;;5105477;28;20410;-71
2023/08/04 09:54:08;;;;;;;4.97;1.20;;;20.70;99.90;;;;;;5101830;28;20543;-71
2023/08/04 09:56:34;;;;;;;5.57;1.15;;;20.60;99.90;;;;;;5105001;28;21038;-71
2023/08/04 09:59:00;;;;;;;6.25;1.52;;;20.70;99.90;;;;;;5100692;28;20931;-72
2023/08/04 10:01:25;;;;;;;5.57;1.30;;;21.10;99.90;;;;;;5105273;28;20407;-72
2023/08/04 10:03:54;;;;;;;5.00;0.93;;;21.60;99.90;;;;;;5098043;28;20418;-72
2023/08/04 10:06:20;;;;;;;4.80;1.00;;;21.70;99.90;;;;;;5087714;28;20397;-72
2023/08/04 10:08:48;;;;;;;7.38;1.00;;;21.40;99.90;;;;;;5103221;28;20396;-72
2023/08/04 10:11:14;;;;;;;6.23;1.47;;;21.20;99.90;;;;;;5104908;28;20413;-71
2023/08/04 10:13:42;;;;;;;4.47;0.73;;;20.90;99.90;;;;;;5103908;28;20441;-71
2023/08/04 10:16:13;;;;;;;8.63;1.30;;;20.80;99.90;;;;;;5106578;28;20401;-72
2023/08/04 10:19:03;;;;;;;4.05;1.00;;;20.60;99.90;;;;;;5103962;28;20429;-71
2023/08/04 10:21:36;;;;;;;6.10;0.95;;;20.50;99.90;;;;;;5091316;28;20421;-71
2023/08/04 10:24:02;;;;;;;4.38;0.70;;;20.60;99.90;;;;;;5106039;28;21104;-71
2023/08/04 10:26:34;;;;;;;5.60;1.03;;;21.00;99.90;;;;;;5103075;28;20402;-72
2023/08/04 10:29:03;;;;;;;4.72;0.90;;;21.70;99.90;;;;;;5105630;28;20407;-71
2023/08/04 10:31:55;;;;;;;4.55;0.77;;;22.30;99.90;;;;;;5102955;28;20412;-72
2023/08/04 10:34:37;;;;;;;6.00;0.90;;;22.50;99.90;;;;;;5092056;28;20441;-72
2023/08/04 10:37:09;;;;;;;4.85;0.80;;;22.60;99.90;;;;;;5106057;28;20411;-72
2023/08/04 10:39:40;;;;;;;3.55;0.70;;;22.90;99.90;;;;;;5101094;28;20474;-72
2023/08/04 10:42:12;;;;;;;4.40;0.75;;;23.10;99.90;;;;;;5104286;28;21453;-72
2023/08/04 10:44:50;;;;;;;4.32;0.80;;;22.80;99.90;;;;;;5091959;28;20415;-72
2023/08/04 10:47:27;;;;;;;3.47;0.60;;;22.50;99.90;;;;;;5101422;28;20833;-71
2023/08/04 10:49:53;;;;;;;4.35;0.90;;;22.10;99.90;;;;;;5084563;28;20411;-72
2023/08/04 10:52:19;;;;;;;3.50;0.70;;;22.00;99.90;;;;;;5100795;28;20751;-72
2023/08/04 10:54:45;;;;;;;4.57;0.60;;;22.20;99.90;;;;;;5103908;28;20457;-72
2023/08/04 10:57:18;;;;;;;5.10;0.60;;;22.60;99.90;;;;;;5100373;28;20452;-72
2023/08/04 10:59:44;;;;;;;3.13;0.40;;;23.10;99.90;;;;;;5095969;28;20421;-72
2023/08/04 11:02:09;;;;;;;4.00;0.60;;;23.50;99.90;;;;;;5099251;28;20406;-72
2023/08/04 11:04:38;;;;;;;3.22;0.40;;;23.80;99.90;;;;;;5095862;28;20752;-72
2023/08/04 11:07:04;;;;;;;2.90;0.40;;;24.10;99.90;;;;;;5103051;28;20394;-72
2023/08/04 11:09:31;;;;;;;2.37;0.50;;;24.30;99.90;;;;;;5106353;28;20400;-72
2023/08/04 11:11:57;;;;;;;3.35;0.70;;;24.40;99.90;;;;;;5105556;28;20739;-72
2023/08/04 11:14:24;;;;;;;3.43;0.50;;;24.40;99.90;;;;;;5107280;28;20448;-72
2023/08/04 11:16:49;;;;;;;2.40;0.50;;;24.50;99.90;;;;;;5103910;28;20484;-72
2023/08/04 11:19:20;;;;;;;2.58;0.32;;;24.70;99.90;;;;;;5106826;28;20508;-72
2023/08/04 11:21:46;;;;;;;3.30;0.50;;;25.00;99.90;;;;;;5105124;28;20404;-72
2023/08/04 11:24:11;;;;;;;4.63;0.30;;;25.30;99.90;;;;;;5105542;28;20432;-72
2023/08/04 11:26:37;;;;;;;3.13;0.50;;;25.40;99.90;;;;;;5102870;28;20474;-72
2023/08/04 11:29:04;;;;;;;3.27;0.50;;;25.20;99.90;;;;;;5105422;28;20397;-72
2023/08/04 11:31:32;;;;;;;4.13;0.40;;;25.00;99.90;;;;;;5100343;28;20965;-72
2023/08/04 11:33:58;;;;;;;2.90;0.50;;;25.00;99.90;;;;;;5106235;28;20396;-72
2023/08/04 11:36:24;;;;;;;2.45;0.50;;;24.90;99.90;;;;;;5106054;28;20957;-72
2023/08/04 11:38:49;;;;;;;2.73;0.43;;;24.90;99.90;;;;;;5098196;28;20425;-72
2023/08/04 11:41:16;;;;;;;2.65;0.40;;;25.00;99.90;;;;;;5104569;28;20735;-72
2023/08/04 11:43:42;;;;;;;3.70;0.75;;;25.30;99.90;;;;;;5108657;28;20770;-72
2023/08/04 11:46:08;;;;;;;4.50;0.73;;;25.50;99.90;;;;;;5094751;28;20425;-72
2023/08/04 11:48:35;;;;;;;2.87;0.50;;;25.50;99.90;;;;;;5108309;28;20407;-72
2023/08/04 11:51:01;;;;;;;3.08;0.43;;;25.30;99.90;;;;;;5103950;28;20537;-72
2023/08/04 11:53:27;;;;;;;3.38;0.68;;;25.00;99.90;;;;;;5096186;28;20850;-72
2023/08/04 11:55:57;;;;;;;4.78;1.00;;;24.90;99.90;;;;;;5090397;28;20443;-71
2023/08/04 11:58:30;;;;;;;5.97;1.10;;;24.70;99.90;;;;;;5099134;28;20463;-72
2023/08/04 12:00:56;;;;;;;3.28;0.95;;;24.40;99.90;;;;;;5099855;28;20420;-72
2023/08/04 12:03:21;;;;;;;8.65;1.70;;;24.20;99.90;;;;;;5103764;28;20757;-72
2023/08/04 12:05:47;;;;;;;6.70;1.17;;;24.00;99.90;;;;;;5090298;28;20406;-71
2023/08/04 12:08:14;;;;;;;4.43;0.90;;;23.90;99.90;;;;;;5101227;28;20411;-71
2023/08/04 12:10:40;;;;;;;5.53;1.20;;;23.70;99.90;;;;;;5107581;28;20405;-71
2023/08/04 12:13:06;;;;;;;3.88;0.80;;;23.50;99.90;;;;;;5108683;28;20790;-71
2023/08/04 12:15:52;;;;;;;3.67;0.80;;;23.20;99.90;;;;;;5108969;28;20396;-71
2023/08/04 12:18:25;;;;;;;4.53;1.00;;;23.10;99.90;;;;;;5108340;28;20935;-71
2023/08/04 12:20:51;;;;;;;2.97;0.77;;;22.90;99.90;;;;;;5107303;28;20901;-71
2023/08/04 12:23:17;;;;;;;2.33;0.90;;;22.80;99.90;;;;;;5106410;28;20402;-71
2023/08/04 12:25:42;;;;;;;3.60;0.70;;;23.00;99.90;;;;;;5108444;28;20397;-71
2023/08/04 12:28:08;;;;;;;4.10;0.87;;;23.40;99.90;;;;;;5094262;28;20398;-71
2023/08/04 12:30:33;;;;;;;3.17;0.60;;;23.60;99.90;;;;;;5108449;28;20400;-72
2023/08/04 12:32:59;;;;;;;3.93;0.60;;;23.80;99.90;;;;;;5106149;28;20406;-72
2023/08/04 12:35:24;;;;;;;5.13;1.00;;;23.80;99.90;;;;;;5098753;28;21260;-72
2023/08/04 12:37:50;;;;;;;5.47;1.00;;;23.60;99.90;;;;;;5101950;28;20479;-71
2023/08/04 12:40:16;;;;;;;3.70;0.73;;;23.70;99.90;;;;;;5108011;28;20404;-72
2023/08/04 12:42:41;;;;;;;3.73;0.73;;;23.90;99.90;;;;;;5105304;28;20405;-72
2023/08/04 12:45:07;;;;;;;4.00;0.80;;;24.10;99.90;;;;;;5107118;28;20796;-72